イエローナイフ の空港の天気 - METARとTAF

イエローナイフ空港 ( CYZF / YZF ) - カナダ ノースウエスト準州イエローナイフ
飛行場実況気象(Metar)
観測時間04/21 08:00 MDT (04/21 14:00 UTC)
風向・風速東北東 4m/s
視程10km以上
天気現象
少しの雲 雲底高度 1830m
少しの雲 雲底高度 7620m
気温-10℃
湿度79%
気圧1021.8hPa
METARCYZF 211400Z 06007KT 15SM FEW060 FEW250 M10/M13 A3012 RMK SC1CI1 SC TR CI TR SLP218
過去の天気等 Google飛行場航空写真 Wunderground天気予報

過去48時間のMETAR

飛行場予報(TAF)
発表時間: 4/21 05:38 MDT (4/21 11:38 UTC)
予報対象時間: 21日6時 MDT ~ 22日6時 MDT
風向・風速東 3m/s
視程10km以上
なし
21日8時 MDT から
風向・風速東 4m/s
視程10km以上
全天の4割程度の雲 雲底高度 610m
21日8時 MDT ~ 21日14時 MDT に一時的に
全天の8割程度の雲 雲底高度 610m
21日14時 MDT から
風向・風速南東 4m/s
視程10km以上
少しの雲 雲底高度 610m
全天の8割程度の雲 雲底高度 1830m
21日20時 MDT から
風向・風速東南東 5m/s
視程10km以上
全天の4割程度の雲 雲底高度 1830m
TAF CYZF 211138Z 2112/2212 08006KT P6SM SKC
FM211400 10008KT P6SM SCT020
TEMPO 2114/2120 BKN020
FM212000 14008KT P6SM FEW020 BKN060
FM220200 12010KT P6SM SCT060 RMK NXT FCST BY 211800Z